Time;durP1;ratioP1;P1;durP2;ratioP2;P2;SDS_P1;SDS_P2;PMS_P1;PMS_P2;Temp;Humidity;BMP_temperature;BMP_pressure;BME280_temperature;BME280_humidity;BME280_pressure;Samples;Min_cycle;Max_cycle;Signal;HPM_P1;HPM_P2
2023/03/19 00:01:56;;;;;;;3.83;2.93;;;;;;;;;;5052382;28;20415;-65
2023/03/19 00:04:23;;;;;;;3.53;3.43;;;;;;;;;;5052559;28;20411;-65
2023/03/19 00:06:51;;;;;;;3.50;3.33;;;;;;;;;;5052124;28;20464;-65
2023/03/19 00:09:18;;;;;;;3.73;3.43;;;;;;;;;;5052696;28;20480;-65
2023/03/19 00:11:47;;;;;;;3.90;3.70;;;;;;;;;;5052369;28;20435;-65
2023/03/19 00:14:16;;;;;;;4.60;4.07;;;;;;;;;;5052323;28;20470;-65
2023/03/19 00:16:42;;;;;;;3.67;3.40;;;;;;;;;;5052223;28;20876;-64
2023/03/19 00:19:08;;;;;;;3.37;3.17;;;;;;;;;;5052250;28;20456;-64
2023/03/19 00:21:34;;;;;;;3.70;3.40;;;;;;;;;;5052189;28;20446;-65
2023/03/19 00:24:01;;;;;;;6.50;3.70;;;;;;;;;;5052098;28;20446;-64
2023/03/19 00:26:31;;;;;;;4.30;3.17;;;;;;;;;;5040126;28;20448;-65
2023/03/19 00:28:57;;;;;;;3.20;3.00;;;;;;;;;;5032299;28;20414;-65
2023/03/19 00:31:27;;;;;;;3.33;2.83;;;;;;;;;;5014496;28;20907;-65
2023/03/19 00:33:56;;;;;;;2.97;2.77;;;;;;;;;;5032068;28;20459;-64
2023/03/19 00:36:22;;;;;;;3.40;3.20;;;;;;;;;;5031927;28;20469;-64
2023/03/19 00:38:48;;;;;;;3.70;3.40;;;;;;;;;;5031923;28;20412;-64
2023/03/19 00:41:16;;;;;;;3.67;3.30;;;;;;;;;;5031678;28;20450;-64
2023/03/19 00:43:42;;;;;;;3.83;3.13;;;;;;;;;;5031753;28;20431;-64
2023/03/19 00:46:08;;;;;;;9.97;3.17;;;;;;;;;;5031867;28;20442;-64
2023/03/19 00:48:34;;;;;;;8.83;3.30;;;;;;;;;;5033462;28;20438;-64
2023/03/19 00:51:04;;;;;;;2.90;2.70;;;;;;;;;;5035832;28;20914;-64
2023/03/19 00:53:31;;;;;;;3.63;2.47;;;;;;;;;;5035615;28;20446;-64
2023/03/19 00:55:57;;;;;;;5.07;2.70;;;;;;;;;;5035553;28;20407;-66
2023/03/19 00:58:23;;;;;;;2.37;2.17;;;;;;;;;;5035655;28;20420;-65
2023/03/19 01:00:51;;;;;;;2.63;2.43;;;;;;;;;;5035433;28;20415;-64
2023/03/19 01:03:17;;;;;;;2.23;2.03;;;;;;;;;;5035453;28;20778;-64
2023/03/19 01:05:46;;;;;;;2.40;2.10;;;;;;;;;;5035221;28;20439;-64
2023/03/19 01:08:14;;;;;;;2.60;2.50;;;;;;;;;;5035741;28;20411;-64
2023/03/19 01:10:40;;;;;;;2.27;2.13;;;;;;;;;;5035115;28;20435;-64
2023/03/19 01:13:09;;;;;;;2.60;2.40;;;;;;;;;;5035241;28;20411;-64
2023/03/19 01:15:36;;;;;;;2.50;2.40;;;;;;;;;;5034896;28;20479;-63
2023/03/19 01:18:02;;;;;;;4.13;2.60;;;;;;;;;;5035040;28;20890;-64
2023/03/19 01:20:28;;;;;;;3.03;2.63;;;;;;;;;;5035405;28;20554;-65
2023/03/19 01:22:54;;;;;;;2.57;2.47;;;;;;;;;;5035180;28;20423;-64
2023/03/19 01:25:21;;;;;;;4.50;3.60;;;;;;;;;;5035062;28;20759;-64
2023/03/19 01:27:47;;;;;;;3.53;2.30;;;;;;;;;;5034931;28;20965;-63
2023/03/19 01:30:13;;;;;;;3.23;2.90;;;;;;;;;;5035020;28;20447;-64
2023/03/19 01:32:39;;;;;;;3.23;3.03;;;;;;;;;;5035044;28;20518;-65
2023/03/19 01:35:08;;;;;;;3.13;2.50;;;;;;;;;;5035882;28;20463;-65
2023/03/19 01:37:34;;;;;;;3.03;2.93;;;;;;;;;;5034902;28;20419;-64
2023/03/19 01:40:00;;;;;;;3.43;3.23;;;;;;;;;;5035158;28;20412;-64
2023/03/19 01:42:26;;;;;;;3.23;3.00;;;;;;;;;;5034622;28;20416;-64
2023/03/19 01:44:52;;;;;;;3.43;3.23;;;;;;;;;;5035103;28;20944;-64
2023/03/19 01:47:24;;;;;;;3.30;3.00;;;;;;;;;;5035114;28;20416;-65
2023/03/19 01:49:54;;;;;;;2.80;2.60;;;;;;;;;;5034729;28;20791;-65
2023/03/19 01:52:21;;;;;;;6.00;3.10;;;;;;;;;;5034679;28;20420;-65
2023/03/19 01:54:47;;;;;;;7.83;2.80;;;;;;;;;;5034677;28;20489;-65
2023/03/19 01:57:14;;;;;;;3.50;2.40;;;;;;;;;;5034485;28;20502;-66
2023/03/19 01:59:45;;;;;;;2.53;2.43;;;;;;;;;;5034096;28;20842;-65
2023/03/19 02:02:16;;;;;;;3.30;2.60;;;;;;;;;;5016585;28;20506;-65
2023/03/19 02:04:42;;;;;;;2.33;2.33;;;;;;;;;;5034219;28;20419;-65
2023/03/19 02:07:09;;;;;;;2.23;2.13;;;;;;;;;;5034524;28;20451;-65
2023/03/19 02:09:35;;;;;;;3.13;2.80;;;;;;;;;;5034184;28;20423;-65
2023/03/19 02:12:02;;;;;;;2.60;2.50;;;;;;;;;;5034282;28;20455;-65
2023/03/19 02:14:28;;;;;;;3.30;3.10;;;;;;;;;;5016007;28;20989;-65
2023/03/19 02:16:54;;;;;;;5.17;3.10;;;;;;;;;;5034138;28;20418;-65
2023/03/19 02:19:28;;;;;;;3.03;2.83;;;;;;;;;;5034037;28;20407;-66
2023/03/19 02:21:55;;;;;;;3.07;2.67;;;;;;;;;;5033873;28;20506;-65
2023/03/19 02:24:24;;;;;;;2.73;2.60;;;;;;;;;;5034159;28;20875;-65
2023/03/19 02:26:50;;;;;;;2.57;2.43;;;;;;;;;;5016122;28;20431;-65
2023/03/19 02:29:16;;;;;;;3.43;3.13;;;;;;;;;;5033991;28;20936;-65
2023/03/19 02:31:42;;;;;;;3.07;2.97;;;;;;;;;;5033448;28;20427;-65
2023/03/19 02:34:11;;;;;;;3.77;3.23;;;;;;;;;;5033671;28;21051;-68
2023/03/19 02:36:46;;;;;;;3.13;2.93;;;;;;;;;;5015711;28;20420;-65
2023/03/19 02:39:21;;;;;;;3.47;3.17;;;;;;;;;;5033891;28;20439;-65
2023/03/19 02:41:48;;;;;;;3.23;3.00;;;;;;;;;;5033594;28;20502;-65
2023/03/19 02:44:18;;;;;;;3.17;2.97;;;;;;;;;;5015873;28;20454;-65
2023/03/19 02:46:47;;;;;;;5.83;3.00;;;;;;;;;;5033153;28;20922;-65
2023/03/19 02:49:14;;;;;;;3.10;2.57;;;;;;;;;;5033639;28;20423;-65
2023/03/19 02:51:40;;;;;;;3.33;3.00;;;;;;;;;;5033303;28;20605;-65
2023/03/19 02:54:07;;;;;;;2.70;2.60;;;;;;;;;;5033827;28;20477;-65
2023/03/19 02:56:33;;;;;;;3.67;2.77;;;;;;;;;;5033474;28;20443;-65
2023/03/19 02:59:03;;;;;;;2.53;2.43;;;;;;;;;;5033359;28;20412;-65
2023/03/19 03:01:29;;;;;;;2.67;2.47;;;;;;;;;;5033005;28;20440;-65
2023/03/19 03:03:55;;;;;;;2.40;2.10;;;;;;;;;;5033034;28;20927;-65
2023/03/19 03:06:24;;;;;;;2.90;2.57;;;;;;;;;;5033340;28;20418;-65
2023/03/19 03:08:50;;;;;;;2.57;2.40;;;;;;;;;;5032887;28;20887;-65
2023/03/19 03:11:16;;;;;;;3.37;2.80;;;;;;;;;;5032011;28;20420;-65
2023/03/19 03:13:42;;;;;;;2.93;2.70;;;;;;;;;;5032740;28;20497;-65
2023/03/19 03:16:08;;;;;;;2.60;2.40;;;;;;;;;;5033202;28;20411;-65
2023/03/19 03:18:35;;;;;;;2.10;1.90;;;;;;;;;;5032924;28;20778;-65
2023/03/19 03:21:02;;;;;;;2.13;1.80;;;;;;;;;;5033114;28;20420;-65
2023/03/19 03:23:30;;;;;;;2.03;1.93;;;;;;;;;;5033347;28;20805;-65
2023/03/19 03:25:56;;;;;;;2.97;1.50;;;;;;;;;;5032867;28;20818;-65
2023/03/19 03:28:24;;;;;;;1.77;1.67;;;;;;;;;;5032832;28;20392;-66
2023/03/19 03:30:50;;;;;;;2.80;2.07;;;;;;;;;;5032603;28;20477;-66
2023/03/19 03:33:16;;;;;;;2.80;1.97;;;;;;;;;;5032492;28;20412;-66
2023/03/19 03:35:45;;;;;;;1.90;1.80;;;;;;;;;;5032562;28;20467;-66
2023/03/19 03:38:11;;;;;;;2.13;1.63;;;;;;;;;;5032323;28;20428;-66
2023/03/19 03:40:37;;;;;;;1.97;1.87;;;;;;;;;;5032781;28;20432;-66
2023/03/19 03:43:03;;;;;;;2.90;1.83;;;;;;;;;;5032269;28;20765;-66
2023/03/19 03:45:29;;;;;;;3.50;2.47;;;;;;;;;;5032456;28;20415;-66
2023/03/19 03:47:57;;;;;;;2.13;2.00;;;;;;;;;;5032085;28;20416;-66
2023/03/19 03:50:24;;;;;;;2.33;2.23;;;;;;;;;;5032407;28;20899;-66
2023/03/19 03:52:50;;;;;;;2.50;2.40;;;;;;;;;;5032021;28;20781;-66
2023/03/19 03:55:16;;;;;;;2.27;2.07;;;;;;;;;;5032161;28;20467;-66
2023/03/19 03:57:42;;;;;;;2.80;2.70;;;;;;;;;;5031886;28;20442;-66
2023/03/19 04:00:08;;;;;;;2.80;2.60;;;;;;;;;;5032676;28;20439;-65
2023/03/19 04:02:34;;;;;;;2.50;2.40;;;;;;;;;;5032048;28;20428;-65
2023/03/19 04:05:00;;;;;;;6.83;2.37;;;;;;;;;;5032210;28;20449;-65
2023/03/19 04:07:27;;;;;;;2.20;2.13;;;;;;;;;;5032037;28;20416;-64
2023/03/19 04:09:53;;;;;;;1.80;1.70;;;;;;;;;;5032294;28;20416;-65
2023/03/19 04:12:18;;;;;;;1.90;1.80;;;;;;;;;;5032261;28;20424;-66
2023/03/19 04:14:47;;;;;;;2.30;2.20;;;;;;;;;;5031819;28;20581;-66
2023/03/19 04:17:13;;;;;;;2.33;2.20;;;;;;;;;;5032045;28;20447;-66
2023/03/19 04:19:39;;;;;;;1.90;1.77;;;;;;;;;;5032065;28;20450;-65
2023/03/19 04:22:06;;;;;;;1.60;1.50;;;;;;;;;;5031418;28;20670;-65
2023/03/19 04:24:35;;;;;;;1.50;1.50;;;;;;;;;;5032284;28;20443;-65
2023/03/19 04:27:03;;;;;;;2.20;1.60;;;;;;;;;;5031872;28;20416;-65
2023/03/19 04:29:32;;;;;;;2.63;1.57;;;;;;;;;;5032163;28;20784;-65
2023/03/19 04:31:58;;;;;;;4.23;1.63;;;;;;;;;;5032025;28;20458;-65
2023/03/19 04:34:24;;;;;;;2.00;1.87;;;;;;;;;;5032006;28;20490;-65
2023/03/19 04:36:50;;;;;;;1.70;1.60;;;;;;;;;;5031945;28;20783;-65
2023/03/19 04:39:17;;;;;;;1.97;1.87;;;;;;;;;;5014518;28;20935;-65
2023/03/19 04:41:44;;;;;;;1.87;1.77;;;;;;;;;;5031531;28;20408;-65
2023/03/19 04:44:10;;;;;;;5.23;1.67;;;;;;;;;;5014325;28;20537;-65
2023/03/19 04:46:38;;;;;;;2.10;1.80;;;;;;;;;;5031602;28;20432;-65
2023/03/19 04:49:04;;;;;;;1.80;1.70;;;;;;;;;;5031635;28;20431;-65
2023/03/19 04:51:30;;;;;;;2.17;1.90;;;;;;;;;;5031530;28;20408;-65
2023/03/19 04:53:59;;;;;;;2.13;1.90;;;;;;;;;;5031929;28;20498;-65
2023/03/19 04:56:27;;;;;;;5.43;1.80;;;;;;;;;;5031765;28;20415;-65
2023/03/19 04:58:53;;;;;;;2.30;1.60;;;;;;;;;;5031772;28;20438;-65
2023/03/19 05:01:19;;;;;;;2.57;1.40;;;;;;;;;;5014034;28;20791;-65
2023/03/19 05:03:46;;;;;;;1.73;1.73;;;;;;;;;;5031834;28;20816;-65
2023/03/19 05:06:12;;;;;;;1.87;1.77;;;;;;;;;;5031127;28;20416;-65
2023/03/19 05:08:38;;;;;;;1.73;1.67;;;;;;;;;;5031696;28;20446;-65
2023/03/19 05:11:04;;;;;;;2.93;1.70;;;;;;;;;;5031271;28;20459;-65
2023/03/19 05:13:30;;;;;;;2.30;1.50;;;;;;;;;;5031513;28;20478;-65
2023/03/19 05:15:56;;;;;;;1.90;1.80;;;;;;;;;;5031494;28;20455;-65
2023/03/19 05:18:22;;;;;;;1.87;1.77;;;;;;;;;;5031124;28;20418;-65
2023/03/19 05:20:48;;;;;;;5.10;1.50;;;;;;;;;;5030716;28;20436;-65
2023/03/19 05:23:14;;;;;;;2.00;1.77;;;;;;;;;;5031236;28;20462;-65
2023/03/19 05:25:40;;;;;;;1.90;1.80;;;;;;;;;;5030852;28;20682;-65
2023/03/19 05:28:07;;;;;;;2.10;1.90;;;;;;;;;;5031344;28;20408;-65
2023/03/19 05:30:37;;;;;;;1.97;1.70;;;;;;;;;;5031328;28;20420;-65
2023/03/19 05:33:03;;;;;;;4.27;3.87;;;;;;;;;;5031484;28;20415;-65
2023/03/19 05:35:30;;;;;;;1.90;1.80;;;;;;;;;;5034001;28;20555;-65
2023/03/19 05:37:57;;;;;;;4.00;1.70;;;;;;;;;;5035206;28;20908;-65
2023/03/19 05:40:23;;;;;;;5.83;2.07;;;;;;;;;;5016818;28;20476;-65
2023/03/19 05:42:49;;;;;;;2.20;2.10;;;;;;;;;;5016405;28;20435;-64
2023/03/19 05:45:16;;;;;;;2.03;1.93;;;;;;;;;;5034098;28;20481;-64
2023/03/19 05:47:43;;;;;;;1.83;1.50;;;;;;;;;;5034837;28;20411;-64
2023/03/19 05:50:10;;;;;;;2.67;2.00;;;;;;;;;;5034483;28;20424;-64
2023/03/19 05:52:37;;;;;;;3.13;1.60;;;;;;;;;;5034952;28;20426;-64
2023/03/19 05:55:03;;;;;;;2.00;1.80;;;;;;;;;;5034361;28;20838;-64
2023/03/19 05:57:29;;;;;;;2.70;1.67;;;;;;;;;;5034739;28;20515;-65
2023/03/19 05:59:55;;;;;;;2.33;1.70;;;;;;;;;;5034826;28;20471;-65
2023/03/19 06:02:21;;;;;;;2.10;2.00;;;;;;;;;;5034460;28;20462;-65
2023/03/19 06:04:47;;;;;;;2.50;2.37;;;;;;;;;;5016632;28;20451;-65
2023/03/19 06:07:16;;;;;;;5.03;2.00;;;;;;;;;;5016912;28;20432;-65
2023/03/19 06:09:42;;;;;;;1.90;1.80;;;;;;;;;;5034235;28;20420;-66
2023/03/19 06:12:08;;;;;;;2.63;2.43;;;;;;;;;;5016616;28;20930;-65
2023/03/19 06:14:34;;;;;;;2.27;1.97;;;;;;;;;;5033903;28;20459;-65
2023/03/19 06:17:00;;;;;;;3.27;1.43;;;;;;;;;;5034211;28;20435;-65
2023/03/19 06:19:26;;;;;;;5.00;2.10;;;;;;;;;;5034125;28;20422;-65
2023/03/19 06:21:52;;;;;;;4.87;2.13;;;;;;;;;;5034227;28;20747;-65
2023/03/19 06:24:18;;;;;;;1.80;1.70;;;;;;;;;;5034403;28;20423;-65
2023/03/19 06:26:44;;;;;;;3.50;2.00;;;;;;;;;;5034097;28;20419;-65
2023/03/19 06:29:10;;;;;;;2.00;1.80;;;;;;;;;;5033974;28;20408;-65
2023/03/19 06:31:40;;;;;;;5.93;4.63;;;;;;;;;;5034255;28;20427;-65
2023/03/19 06:34:06;;;;;;;3.23;2.10;;;;;;;;;;5033560;28;20544;-65
2023/03/19 06:36:32;;;;;;;2.20;1.93;;;;;;;;;;5033801;28;20441;-65
2023/03/19 06:38:58;;;;;;;1.70;1.70;;;;;;;;;;5033373;28;20507;-65
2023/03/19 06:41:24;;;;;;;1.60;1.60;;;;;;;;;;5033844;28;20513;-65
2023/03/19 06:43:51;;;;;;;1.73;1.63;;;;;;;;;;5015881;28;20939;-65
2023/03/19 06:46:19;;;;;;;1.70;1.70;;;;;;;;;;5033749;28;20988;-66
2023/03/19 06:48:48;;;;;;;1.77;1.67;;;;;;;;;;5050019;28;20430;-66
2023/03/19 06:51:14;;;;;;;1.57;1.57;;;;;;;;;;5053752;28;20783;-65
2023/03/19 06:53:40;;;;;;;3.70;2.33;;;;;;;;;;5053826;28;20481;-65
2023/03/19 06:56:06;;;;;;;7.23;5.33;;;;;;;;;;5053742;28;20922;-65
2023/03/19 06:58:35;;;;;;;3.37;3.17;;;;;;;;;;5053702;28;20426;-65
2023/03/19 07:01:01;;;;;;;2.67;2.50;;;;;;;;;;5053229;28;20407;-66
2023/03/19 07:03:29;;;;;;;2.30;2.20;;;;;;;;;;5053532;28;20402;-66
2023/03/19 07:05:55;;;;;;;1.87;1.87;;;;;;;;;;5053379;28;20447;-65
2023/03/19 07:08:21;;;;;;;3.50;1.80;;;;;;;;;;5053462;28;20449;-65
2023/03/19 07:10:47;;;;;;;2.30;1.63;;;;;;;;;;5053696;28;20423;-65
2023/03/19 07:13:13;;;;;;;2.03;2.03;;;;;;;;;;5053727;28;20420;-65
2023/03/19 07:15:39;;;;;;;2.40;2.30;;;;;;;;;;5053422;28;20871;-65
2023/03/19 07:18:05;;;;;;;4.40;2.67;;;;;;;;;;5053616;28;20435;-65
2023/03/19 07:20:31;;;;;;;3.73;2.70;;;;;;;;;;5053077;28;20471;-65
2023/03/19 07:22:57;;;;;;;2.97;2.70;;;;;;;;;;5053093;28;20438;-65
2023/03/19 07:25:23;;;;;;;2.70;2.50;;;;;;;;;;5052922;28;20415;-65
2023/03/19 07:27:54;;;;;;;2.93;2.23;;;;;;;;;;5053196;28;20415;-65
2023/03/19 07:30:20;;;;;;;2.93;2.83;;;;;;;;;;5053118;28;20411;-65
2023/03/19 07:32:46;;;;;;;2.60;2.50;;;;;;;;;;5035235;28;20438;-65
2023/03/19 07:35:13;;;;;;;2.67;2.57;;;;;;;;;;5052915;28;20476;-66
2023/03/19 07:37:39;;;;;;;3.03;2.83;;;;;;;;;;5053058;28;20486;-66
2023/03/19 07:40:08;;;;;;;6.63;2.30;;;;;;;;;;5052885;28;20868;-66
2023/03/19 07:42:35;;;;;;;5.50;3.20;;;;;;;;;;5052324;28;20419;-66
2023/03/19 07:45:01;;;;;;;3.10;2.70;;;;;;;;;;5035098;28;20466;-65
2023/03/19 07:47:27;;;;;;;3.53;2.63;;;;;;;;;;5053045;28;20451;-66
2023/03/19 07:49:53;;;;;;;2.70;2.60;;;;;;;;;;5052689;28;20450;-66
2023/03/19 07:52:22;;;;;;;3.37;2.83;;;;;;;;;;5052556;28;20423;-67
2023/03/19 07:54:49;;;;;;;2.17;2.07;;;;;;;;;;5052485;28;20827;-65
2023/03/19 07:57:15;;;;;;;3.87;2.70;;;;;;;;;;5052049;28;20787;-65
2023/03/19 07:59:41;;;;;;;3.00;2.80;;;;;;;;;;5052610;28;20430;-65
2023/03/19 08:02:10;;;;;;;3.23;2.90;;;;;;;;;;5052885;28;20446;-65
2023/03/19 08:04:36;;;;;;;3.00;2.80;;;;;;;;;;5052144;28;20770;-65
2023/03/19 08:07:02;;;;;;;2.90;2.70;;;;;;;;;;5052416;28;20471;-65
2023/03/19 08:09:31;;;;;;;3.63;2.60;;;;;;;;;;5052317;28;20414;-66
2023/03/19 08:12:01;;;;;;;2.73;2.53;;;;;;;;;;5052386;28;20407;-67
2023/03/19 08:14:27;;;;;;;4.80;2.60;;;;;;;;;;5034388;28;20545;-64
2023/03/19 08:16:56;;;;;;;3.33;3.10;;;;;;;;;;5052334;28;20493;-66
2023/03/19 08:19:27;;;;;;;3.17;2.90;;;;;;;;;;5052272;28;20439;-65
2023/03/19 08:21:53;;;;;;;6.70;3.10;;;;;;;;;;5052072;28;20408;-65
2023/03/19 08:24:19;;;;;;;9.33;3.20;;;;;;;;;;5052189;28;20573;-65
2023/03/19 08:26:45;;;;;;;5.90;2.60;;;;;;;;;;5052033;28;20499;-65
2023/03/19 08:29:13;;;;;;;2.60;2.40;;;;;;;;;;5052219;28;20410;-66
2023/03/19 08:31:40;;;;;;;7.53;3.00;;;;;;;;;;5052482;28;20427;-65
2023/03/19 08:34:10;;;;;;;2.97;2.87;;;;;;;;;;5051908;28;21102;-65
2023/03/19 08:36:36;;;;;;;4.10;2.73;;;;;;;;;;5051797;28;20990;-66
2023/03/19 08:39:03;;;;;;;3.00;2.80;;;;;;;;;;5051939;28;20420;-66
2023/03/19 08:41:31;;;;;;;8.87;2.97;;;;;;;;;;5051758;28;20454;-65
2023/03/19 08:43:57;;;;;;;2.60;2.40;;;;;;;;;;5051824;28;20899;-66
2023/03/19 08:46:26;;;;;;;2.67;2.47;;;;;;;;;;5051886;28;20424;-66
2023/03/19 08:48:52;;;;;;;3.03;2.70;;;;;;;;;;5051751;28;20420;-66
2023/03/19 08:51:22;;;;;;;4.37;2.83;;;;;;;;;;5052122;28;20751;-66
2023/03/19 08:53:50;;;;;;;3.33;3.00;;;;;;;;;;5051872;28;20408;-66
2023/03/19 08:56:19;;;;;;;5.23;2.60;;;;;;;;;;5051850;28;20412;-66
2023/03/19 08:58:45;;;;;;;11.80;6.10;;;;;;;;;;5051377;28;20494;-59
2023/03/19 09:01:12;;;;;;;3.57;3.27;;;;;;;;;;5051424;28;20421;-60
2023/03/19 09:03:39;;;;;;;8.20;7.50;;;;;;;;;;5051064;28;20432;-60
2023/03/19 09:06:06;;;;;;;3.37;3.00;;;;;;;;;;5051290;28;20514;-60
2023/03/19 09:08:32;;;;;;;3.17;2.53;;;;;;;;;;5051087;28;20766;-59
2023/03/19 09:10:59;;;;;;;6.67;3.37;;;;;;;;;;5036625;28;20791;-59
2023/03/19 09:13:25;;;;;;;3.60;2.47;;;;;;;;;;5054831;28;20423;-59
2023/03/19 09:15:51;;;;;;;6.50;3.03;;;;;;;;;;5054391;28;20467;-59
2023/03/19 09:18:22;;;;;;;3.53;2.77;;;;;;;;;;5054123;28;20446;-59
2023/03/19 09:20:48;;;;;;;8.50;3.40;;;;;;;;;;5054885;28;20796;-59
2023/03/19 09:23:17;;;;;;;6.33;2.57;;;;;;;;;;5054120;28;20498;-59
2023/03/19 09:25:43;;;;;;;5.53;3.33;;;;;;;;;;5054034;28;20408;-60
2023/03/19 09:28:09;;;;;;;3.87;3.10;;;;;;;;;;5054168;28;20470;-60
2023/03/19 09:30:35;;;;;;;4.43;2.63;;;;;;;;;;5054206;28;20466;-60
2023/03/19 09:33:01;;;;;;;3.83;2.20;;;;;;;;;;5054185;28;20436;-60
2023/03/19 09:35:30;;;;;;;2.70;2.50;;;;;;;;;;5053904;28;20463;-60
2023/03/19 09:37:56;;;;;;;2.90;2.70;;;;;;;;;;5054636;28;20912;-59
2023/03/19 09:40:27;;;;;;;3.70;2.73;;;;;;;;;;5054817;28;20470;-59
2023/03/19 09:43:14;;;;;;;2.70;2.60;;;;;;;;;;5054102;28;20521;-60
2023/03/19 09:45:42;;;;;;;4.43;2.90;;;;;;;;;;5026943;28;20528;-59
2023/03/19 09:48:13;;;;;;;4.27;2.80;;;;;;;;;;5053671;28;20422;-60
2023/03/19 09:50:40;;;;;;;3.07;2.77;;;;;;;;;;5054120;28;20411;-60
2023/03/19 09:53:06;;;;;;;2.83;2.57;;;;;;;;;;5042108;28;20451;-59
2023/03/19 09:55:32;;;;;;;7.90;3.40;;;;;;;;;;5016528;28;20679;-60
2023/03/19 09:57:59;;;;;;;3.97;2.70;;;;;;;;;;5034129;28;20443;-60
2023/03/19 10:00:30;;;;;;;2.83;2.60;;;;;;;;;;5034512;28;20811;-60
2023/03/19 10:03:14;;;;;;;2.57;2.37;;;;;;;;;;5034539;28;20415;-60
2023/03/19 10:05:50;;;;;;;3.23;3.03;;;;;;;;;;5034080;28;20463;-60
2023/03/19 10:08:40;;;;;;;4.20;2.90;;;;;;;;;;5034154;28;20412;-60
2023/03/19 10:11:14;;;;;;;2.77;2.57;;;;;;;;;;5034273;28;20453;-60
2023/03/19 10:13:56;;;;;;;2.30;2.20;;;;;;;;;;5033906;28;20430;-60
2023/03/19 10:16:24;;;;;;;2.80;2.60;;;;;;;;;;5034079;28;20490;-60
2023/03/19 10:18:51;;;;;;;3.67;2.37;;;;;;;;;;5034249;28;20417;-60
2023/03/19 10:21:22;;;;;;;6.53;3.07;;;;;;;;;;5033306;28;20405;-60
2023/03/19 10:23:59;;;;;;;1.93;1.80;;;;;;;;;;5034067;28;20446;-60
2023/03/19 10:26:34;;;;;;;1.90;1.80;;;;;;;;;;5033459;28;20424;-60
2023/03/19 10:29:05;;;;;;;1.97;1.80;;;;;;;;;;5015794;28;20421;-60
2023/03/19 10:31:40;;;;;;;2.10;1.83;;;;;;;;;;5033610;28;20457;-60
2023/03/19 10:34:14;;;;;;;2.03;1.87;;;;;;;;;;5033754;28;20490;-60
2023/03/19 10:36:42;;;;;;;1.83;1.20;;;;;;;;;;5033730;28;20416;-60
2023/03/19 10:39:08;;;;;;;1.47;1.47;;;;;;;;;;5033838;28;20422;-60
2023/03/19 10:41:40;;;;;;;1.93;1.70;;;;;;;;;;5033738;28;20425;-60
2023/03/19 10:44:12;;;;;;;1.90;1.80;;;;;;;;;;5033659;28;20462;-60
2023/03/19 10:46:41;;;;;;;2.27;2.17;;;;;;;;;;5033580;28;20437;-60
2023/03/19 10:49:15;;;;;;;5.20;2.20;;;;;;;;;;5033263;28;20897;-60
2023/03/19 10:51:47;;;;;;;2.17;2.07;;;;;;;;;;5033207;28;20419;-60
2023/03/19 10:54:21;;;;;;;2.00;1.90;;;;;;;;;;5033628;28;20466;-60
2023/03/19 10:56:48;;;;;;;2.53;1.97;;;;;;;;;;5034019;28;20418;-60
2023/03/19 10:59:25;;;;;;;3.10;2.33;;;;;;;;;;5033765;28;20414;-60
2023/03/19 11:01:59;;;;;;;2.00;1.90;;;;;;;;;;5033818;28;20446;-60
2023/03/19 11:04:28;;;;;;;2.17;2.03;;;;;;;;;;5033696;28;20421;-60
2023/03/19 11:07:09;;;;;;;2.00;1.90;;;;;;;;;;5033803;28;20422;-59
2023/03/19 11:09:37;;;;;;;3.70;2.00;;;;;;;;;;5033852;28;20409;-60
2023/03/19 11:12:18;;;;;;;2.03;1.90;;;;;;;;;;5033708;28;20433;-60
2023/03/19 11:14:48;;;;;;;3.40;2.17;;;;;;;;;;5033264;28;20576;-59
2023/03/19 11:17:42;;;;;;;2.03;2.00;;;;;;;;;;5015534;28;20419;-60
2023/03/19 11:20:19;;;;;;;2.03;1.83;;;;;;;;;;4996574;28;20433;-60
2023/03/19 11:22:48;;;;;;;2.57;1.77;;;;;;;;;;5033577;28;20427;-60
2023/03/19 11:25:14;;;;;;;2.00;1.60;;;;;;;;;;5032992;28;20446;-60
2023/03/19 11:27:42;;;;;;;1.90;1.80;;;;;;;;;;5033235;28;20542;-60
2023/03/19 11:30:13;;;;;;;2.20;1.73;;;;;;;;;;5033245;28;20447;-59
2023/03/19 11:32:39;;;;;;;2.80;1.70;;;;;;;;;;5032508;28;20510;-60
2023/03/19 11:35:10;;;;;;;1.83;1.70;;;;;;;;;;5033202;28;20501;-60
2023/03/19 11:37:54;;;;;;;2.10;2.00;;;;;;;;;;5015635;28;20775;-60
2023/03/19 11:40:44;;;;;;;2.33;1.90;;;;;;;;;;5033183;28;20442;-59
2023/03/19 11:43:22;;;;;;;1.60;1.50;;;;;;;;;;5014660;28;20482;-59
2023/03/19 11:45:58;;;;;;;3.93;2.00;;;;;;;;;;5032881;28;20828;-59
2023/03/19 11:48:36;;;;;;;2.10;1.70;;;;;;;;;;5033105;28;20416;-59
2023/03/19 11:51:08;;;;;;;2.90;1.97;;;;;;;;;;5032899;28;20431;-60
2023/03/19 11:53:52;;;;;;;2.30;1.93;;;;;;;;;;5032799;28;20415;-60
2023/03/19 11:56:25;;;;;;;4.97;2.27;;;;;;;;;;5015049;28;20456;-60
2023/03/19 11:58:56;;;;;;;1.67;1.57;;;;;;;;;;5032784;28;20431;-59
2023/03/19 12:01:30;;;;;;;3.37;1.90;;;;;;;;;;5033121;28;20415;-59
2023/03/19 12:04:15;;;;;;;2.00;1.90;;;;;;;;;;5033211;28;20950;-60
2023/03/19 12:06:44;;;;;;;1.93;1.80;;;;;;;;;;5014881;28;20880;-60
2023/03/19 12:09:16;;;;;;;3.00;2.40;;;;;;;;;;5032784;28;20476;-60
2023/03/19 12:11:52;;;;;;;4.93;1.93;;;;;;;;;;5032311;28;20454;-60
2023/03/19 12:14:18;;;;;;;1.90;1.80;;;;;;;;;;5014716;28;20466;-60
2023/03/19 12:16:44;;;;;;;4.10;3.83;;;;;;;;;;5032289;28;20436;-59
2023/03/19 12:19:21;;;;;;;2.30;2.20;;;;;;;;;;5032643;28;20737;-60
2023/03/19 12:22:08;;;;;;;2.87;2.37;;;;;;;;;;5032404;28;20457;-60
2023/03/19 12:24:47;;;;;;;4.10;2.40;;;;;;;;;;5032508;28;20413;-60
2023/03/19 12:27:28;;;;;;;1.90;1.70;;;;;;;;;;5032486;28;20422;-60
2023/03/19 12:29:57;;;;;;;1.60;1.50;;;;;;;;;;5032449;28;20427;-59
2023/03/19 12:32:29;;;;;;;1.90;1.80;;;;;;;;;;5032207;28;20971;-60
2023/03/19 12:35:02;;;;;;;1.43;1.37;;;;;;;;;;5032137;28;20576;-59
2023/03/19 12:37:36;;;;;;;1.73;1.63;;;;;;;;;;5032349;28;20455;-59
2023/03/19 12:40:17;;;;;;;2.50;1.60;;;;;;;;;;5014534;28;20425;-60
2023/03/19 12:42:43;;;;;;;1.60;1.50;;;;;;;;;;5032777;28;20762;-61
2023/03/19 12:45:26;;;;;;;1.50;1.40;;;;;;;;;;5036531;28;20432;-62
2023/03/19 12:47:57;;;;;;;3.13;1.80;;;;;;;;;;5036615;28;20413;-62
2023/03/19 12:50:25;;;;;;;2.10;1.67;;;;;;;;;;5036632;28;20507;-63
2023/03/19 12:52:52;;;;;;;2.00;1.90;;;;;;;;;;5036603;28;20472;-62
2023/03/19 12:55:35;;;;;;;2.93;1.90;;;;;;;;;;5036364;28;20539;-62
2023/03/19 12:58:01;;;;;;;1.67;1.60;;;;;;;;;;5036511;28;20454;-62
2023/03/19 13:00:34;;;;;;;2.47;2.10;;;;;;;;;;5036366;28;20500;-61
2023/03/19 13:03:06;;;;;;;1.87;1.77;;;;;;;;;;5036388;28;20500;-62
2023/03/19 13:05:49;;;;;;;1.70;1.60;;;;;;;;;;5036012;28;20479;-62
2023/03/19 13:08:33;;;;;;;2.30;1.60;;;;;;;;;;5036367;28;20423;-61
2023/03/19 13:11:05;;;;;;;3.97;2.27;;;;;;;;;;5036560;28;20418;-62
2023/03/19 13:13:45;;;;;;;1.40;1.30;;;;;;;;;;5036108;28;20428;-63
2023/03/19 13:16:21;;;;;;;2.20;1.60;;;;;;;;;;5035939;28;20485;-62
2023/03/19 13:18:47;;;;;;;1.97;1.87;;;;;;;;;;5036079;28;20497;-62
2023/03/19 13:21:17;;;;;;;1.80;1.70;;;;;;;;;;5036435;28;20442;-63
2023/03/19 13:23:46;;;;;;;1.70;1.33;;;;;;;;;;5034556;28;20429;-62
2023/03/19 13:26:16;;;;;;;1.40;1.40;;;;;;;;;;5038468;28;20932;-63
2023/03/19 13:28:56;;;;;;;3.37;1.80;;;;;;;;;;5035885;28;20418;-62
2023/03/19 13:31:26;;;;;;;2.77;1.60;;;;;;;;;;5035646;28;20445;-63
2023/03/19 13:34:06;;;;;;;1.83;1.63;;;;;;;;;;5035522;28;20441;-63
2023/03/19 13:36:39;;;;;;;2.63;1.67;;;;;;;;;;5035913;28;20442;-63
2023/03/19 13:39:13;;;;;;;1.87;1.77;;;;;;;;;;5035613;28;20426;-63
2023/03/19 13:41:40;;;;;;;1.40;1.30;;;;;;;;;;5035546;28;20950;-61
2023/03/19 13:44:24;;;;;;;4.53;4.13;;;;;;;;;;5035543;28;20441;-64
2023/03/19 13:46:50;;;;;;;2.33;2.10;;;;;;;;;;5055056;28;20445;-64
2023/03/19 13:49:30;;;;;;;1.70;1.60;;;;;;;;;;5054971;28;20422;-63
2023/03/19 13:52:20;;;;;;;1.60;1.50;;;;;;;;;;5055017;28;20476;-63
2023/03/19 13:55:02;;;;;;;1.73;1.40;;;;;;;;;;5023924;28;20805;-62
2023/03/19 14:01:09;;;;;;;1.63;1.50;;;;;;;;;;5089758;28;20443;-61
2023/03/19 14:07:35;;;;;;;;;;;;;;;;;;;;;
2023/03/19 14:13:36;;;;;;;1.90;1.80;;;;;;;;;;5089720;28;20823;-60
2023/03/19 14:16:25;;;;;;;1.33;1.23;;;;;;;;;;5089330;28;20812;-61
2023/03/19 14:18:55;;;;;;;3.70;1.50;;;;;;;;;;5081332;28;20456;-60
2023/03/19 14:21:34;;;;;;;10.40;1.83;;;;;;;;;;5088050;28;20428;-60
2023/03/19 14:24:19;;;;;;;1.50;1.40;;;;;;;;;;5089440;28;20898;-60
2023/03/19 14:26:45;;;;;;;1.63;1.53;;;;;;;;;;5089371;28;20411;-60
2023/03/19 14:29:14;;;;;;;1.77;1.67;;;;;;;;;;5089129;28;20979;-60
2023/03/19 14:31:46;;;;;;;1.60;1.50;;;;;;;;;;5089081;28;20457;-60
2023/03/19 14:34:26;;;;;;;1.43;1.33;;;;;;;;;;5087741;28;20510;-60
2023/03/19 14:36:58;;;;;;;1.70;1.60;;;;;;;;;;5089107;28;20477;-61
2023/03/19 14:39:26;;;;;;;1.37;1.37;;;;;;;;;;5089023;28;20757;-61
2023/03/19 14:41:58;;;;;;;1.27;1.20;;;;;;;;;;5088969;28;20408;-62
2023/03/19 14:44:46;;;;;;;1.23;1.13;;;;;;;;;;5088632;28;20407;-61
2023/03/19 14:47:21;;;;;;;1.20;1.10;;;;;;;;;;5088428;28;20482;-60
2023/03/19 14:49:49;;;;;;;1.30;1.30;;;;;;;;;;5088799;28;20464;-61
2023/03/19 14:52:30;;;;;;;1.50;1.50;;;;;;;;;;5088434;28;20461;-60
2023/03/19 14:54:56;;;;;;;2.40;1.13;;;;;;;;;;5088418;28;20824;-60
2023/03/19 14:57:29;;;;;;;1.20;1.10;;;;;;;;;;5088009;28;20471;-60
2023/03/19 14:59:58;;;;;;;1.87;1.80;;;;;;;;;;5088404;28;20448;-60
2023/03/19 15:02:23;;;;;;;1.40;1.40;;;;;;;;;;5088256;28;20430;-60
2023/03/19 15:04:50;;;;;;;1.27;1.23;;;;;;;;;;5088335;28;20494;-60
2023/03/19 15:07:18;;;;;;;0.97;0.97;;;;;;;;;;5084788;28;20465;-60